Lajitas, Texas
Current Conditions -  °F | °C
As of 5:15 PM on Wednesday 22 Oct 2014 (Local Time) from KPRS Reporting Station
Clear Clear  
Wind Chill: 79°   Ceiling: Unl
Heat Index: 80°   Visibility: 10mi
Dew Point: 57°   Wind: 5mph
Humidity: 47%   Direction: 130°SE
Pressure: 30.02"   Gusts: NA
Location:  29.3217°N, 103.605°W
Report Text: KPRS 222215Z AUTO 13004KT 10SM CLR 26/14 A3002 RMK AO2 T02610140
Loading
Personal Weather Stations






























Interactive Weather Map
Tropical Storm Tracking
New forecast layout! Learn more

10-Day Weather Forecast

Advertisements
Track Severe Weather on mobile